Durant, OK

2:11 AM CST on January 20, 2018 (GMT -0600)
Eaker

Weather History for KDUA - March, 2014

Change the Weather History Date:

Sunday, March 23, 2014

  Actual Average (KMLC) Record (KMLC)
Temperature  
Mean Temperature 49 °F -  
Max Temperature 57 °F 65 °F 84 °F (2017)
Min Temperature 41 °F 41 °F 24 °F (1968)
Degree Days  
Heating Degree Days 16    
Moisture  
Dew Point 30 °F    
Average Humidity 49    
Maximum Humidity 65    
Minimum Humidity 33    
Precipitation  
Precipitation 0.00 in - - ()
Sea Level Pressure  
Sea Level Pressure 30.28 in    
Wind  
Wind Speed 16 mph (North)    
Max Wind Speed 25 mph    
Max Gust Speed 33 mph    
Visibility 10 miles    
Events      
Averages and records for this station are not official NWS values.
T = Trace of Precipitation, MM = Missing Value Source: NWS Daily Summary

Daily Weather History Graph

Daily Weather History Graph

Search for Another Location

Airport or City:

Trip Planner

Search our weather history database for the weather conditions in past years. The results will help you decide how hot, cold, wet, or windy it might be!

Date:

Astronomy

Mar. 23, 2014 Rise Set
Actual Time 7:25 AM CDT 7:39 PM CDT
Civil Twilight 7:00 AM CDT 8:04 PM CDT
Nautical Twilight 6:31 AM CDT 8:33 PM CDT
Astronomical Twilight 6:01 AM CDT 9:03 PM CDT
Moon 1:44 AM CDT (3/23) 12:20 PM CDT (3/23)
Length of Visible Light 13h 04m
Length of Day
12h 14m
Waning Gibbous, 54% of the Moon is Illuminated
Mar 23
Waning Gibbous
Mar 23
Last Quarter
Mar 30
New
Apr 7
First Quarter
Apr 15
Full

Hourly Weather History & Observations

Time (CDT) Temp. Windchill Dew Point Humidity Pressure Visibility Wind Dir Wind Speed Gust Speed Precip Events Conditions
12:15 AM 51.8 °F - 39.2 °F 62% 30.15 in 10.0 mi NNW 15.0 mph - N/A   Overcast
12:35 AM 51.8 °F - 39.2 °F 62% 30.15 in 10.0 mi North 17.3 mph 21.9 mph N/A   Overcast
12:55 AM 51.8 °F - 39.2 °F 62% 30.15 in 10.0 mi North 17.3 mph 25.3 mph N/A   Overcast
1:15 AM 51.8 °F - 39.2 °F 62% 30.16 in 10.0 mi North 17.3 mph 28.8 mph N/A   Overcast
1:35 AM 51.8 °F - 37.4 °F 58% 30.17 in 10.0 mi North 17.3 mph 25.3 mph N/A   Overcast
1:55 AM 51.8 °F - 37.4 °F 58% 30.18 in 10.0 mi North 18.4 mph 25.3 mph N/A   Overcast
2:15 AM 50.0 °F - 35.6 °F 58% 30.18 in 10.0 mi North 25.3 mph 33.4 mph N/A   Overcast
2:35 AM 50.0 °F - 35.6 °F 58% 30.19 in 10.0 mi North 24.2 mph 31.1 mph N/A   Overcast
2:55 AM 50.0 °F - 35.6 °F 58% 30.21 in 10.0 mi NNE 21.9 mph 29.9 mph N/A   Overcast
3:15 AM 50.0 °F - 35.6 °F 58% 30.22 in 10.0 mi North 18.4 mph 24.2 mph N/A   Overcast
3:35 AM 48.2 °F - 33.8 °F 58% 30.22 in 10.0 mi NNE 23.0 mph 28.8 mph N/A   Overcast
3:55 AM 48.2 °F - 33.8 °F 58% 30.22 in 10.0 mi North 21.9 mph 31.1 mph N/A   Overcast
4:15 AM 48.2 °F - 32.0 °F 54% 30.23 in 10.0 mi North 19.6 mph 27.6 mph N/A   Overcast
4:35 AM 46.4 °F 38.1 °F 32.0 °F 57% 30.23 in 10.0 mi NNE 24.2 mph 31.1 mph N/A   Overcast
4:55 AM 46.4 °F 38.7 °F 32.0 °F 57% 30.23 in 10.0 mi NNE 20.7 mph 26.5 mph N/A   Overcast
5:15 AM 46.4 °F 39.0 °F 30.2 °F 53% 30.24 in 10.0 mi NNE 19.6 mph 29.9 mph N/A   Mostly Cloudy
5:35 AM 44.6 °F 37.2 °F 28.4 °F 53% 30.25 in 10.0 mi NNE 17.3 mph 24.2 mph N/A   Mostly Cloudy
5:55 AM 44.6 °F 36.9 °F 28.4 °F 53% 30.26 in 10.0 mi NNE 18.4 mph 23.0 mph N/A   Mostly Cloudy
6:15 AM 44.6 °F 36.4 °F 26.6 °F 49% 30.27 in 10.0 mi NNE 20.7 mph 26.5 mph N/A   Mostly Cloudy
6:35 AM 42.8 °F 34.8 °F 28.4 °F 57% 30.29 in 10.0 mi North 17.3 mph - N/A   Scattered Clouds
6:55 AM 42.8 °F 34.5 °F 28.4 °F 57% 30.30 in 10.0 mi North 18.4 mph 25.3 mph N/A   Clear
7:15 AM 42.8 °F 35.8 °F 26.6 °F 53% 30.32 in 10.0 mi North 13.8 mph 24.2 mph N/A   Clear
7:35 AM 41.0 °F 32.2 °F 24.8 °F 53% 30.33 in 10.0 mi North 18.4 mph 23.0 mph N/A   Clear
7:55 AM 41.0 °F 31.6 °F 23.0 °F 49% 30.33 in 10.0 mi North 20.7 mph - N/A   Clear
8:15 AM 41.0 °F 33.9 °F 24.8 °F 53% 30.35 in 10.0 mi North 12.7 mph 20.7 mph N/A   Clear
8:35 AM 42.8 °F 35.1 °F 24.8 °F 49% 30.36 in 10.0 mi North 16.1 mph 21.9 mph N/A   Clear
8:55 AM 42.8 °F 33.8 °F 23.0 °F 46% 30.36 in 10.0 mi North 21.9 mph 28.8 mph N/A   Clear
9:15 AM 42.8 °F 34.0 °F 23.0 °F 46% 30.37 in 10.0 mi North 20.7 mph 25.3 mph N/A   Clear
9:35 AM 42.8 °F 34.0 °F 23.0 °F 46% 30.37 in 10.0 mi North 20.7 mph 27.6 mph N/A   Clear
9:55 AM 42.8 °F 35.1 °F 23.0 °F 46% 30.39 in 10.0 mi NNE 16.1 mph 23.0 mph N/A   Clear
10:15 AM 44.6 °F 37.2 °F 24.8 °F 46% 30.40 in 10.0 mi North 17.3 mph - N/A   Clear
10:35 AM 44.6 °F 37.2 °F 26.6 °F 49% 30.41 in 10.0 mi NNE 17.3 mph 25.3 mph N/A   Clear
10:55 AM 44.6 °F 37.2 °F 26.6 °F 49% 30.41 in 10.0 mi WNW 17.3 mph - N/A   Clear
11:15 AM 46.4 °F 39.8 °F 26.6 °F 46% 30.41 in 10.0 mi NW 16.1 mph 21.9 mph N/A   Clear
11:35 AM 46.4 °F 39.8 °F 26.6 °F 46% 30.40 in 10.0 mi North 16.1 mph 20.7 mph N/A   Clear
11:55 AM 48.2 °F - 28.4 °F 46% 30.40 in 10.0 mi North 15.0 mph 20.7 mph N/A   Clear
12:15 PM 50.0 °F - 28.4 °F 43% 30.39 in 10.0 mi NNW 15.0 mph 20.7 mph N/A   Clear
12:35 PM 50.0 °F - 28.4 °F 43% 30.38 in 10.0 mi NW 13.8 mph - N/A   Clear
12:55 PM 51.8 °F - 30.2 °F 44% 30.37 in 10.0 mi NNW 16.1 mph - N/A   Clear
1:15 PM 51.8 °F - 30.2 °F 44% 30.36 in 10.0 mi NW 15.0 mph 20.7 mph N/A   Clear
1:35 PM 51.8 °F - 30.2 °F 44% 30.34 in 10.0 mi North 17.3 mph 24.2 mph N/A   Clear
1:55 PM 53.6 °F - 30.2 °F 41% 30.32 in 10.0 mi North 17.3 mph 25.3 mph N/A   Clear
2:15 PM 53.6 °F - 30.2 °F 41% 30.31 in 10.0 mi NNE 17.3 mph 21.9 mph N/A   Clear
2:35 PM 53.6 °F - 30.2 °F 41% 30.30 in 10.0 mi North 17.3 mph 26.5 mph N/A   Clear
2:55 PM 53.6 °F - 30.2 °F 41% 30.32 in 10.0 mi NNE 16.1 mph 25.3 mph N/A   Clear
3:15 PM 53.6 °F - 30.2 °F 41% 30.31 in 10.0 mi NE 12.7 mph 19.6 mph N/A   Clear
3:35 PM 55.4 °F - 30.2 °F 38% 30.30 in 10.0 mi North 11.5 mph 16.1 mph N/A   Clear
3:55 PM 55.4 °F - 30.2 °F 38% 30.29 in 10.0 mi North 10.4 mph 23.0 mph N/A   Clear
4:15 PM 55.4 °F - 30.2 °F 38% 30.28 in 10.0 mi North 10.4 mph 17.3 mph N/A   Clear
4:35 PM 55.4 °F - 28.4 °F 36% 30.27 in 10.0 mi NE 12.7 mph - N/A   Clear
4:55 PM 57.2 °F - 28.4 °F 33% 30.27 in 10.0 mi ENE 10.4 mph - N/A   Clear
5:15 PM 57.2 °F - 28.4 °F 33% 30.27 in 10.0 mi NE 13.8 mph 17.3 mph N/A   Clear
5:35 PM 55.4 °F - 28.4 °F 36% 30.26 in 10.0 mi NE 10.4 mph 17.3 mph N/A   Clear
5:55 PM 55.4 °F - 28.4 °F 36% 30.25 in 10.0 mi NE 12.7 mph 17.3 mph N/A   Clear
6:15 PM 55.4 °F - 28.4 °F 36% 30.25 in 10.0 mi NE 10.4 mph - N/A   Clear
6:35 PM 55.4 °F - 28.4 °F 36% 30.26 in 10.0 mi NE 11.5 mph - N/A   Clear
6:55 PM 53.6 °F - 28.4 °F 38% 30.25 in 10.0 mi NE 9.2 mph - N/A   Clear
7:15 PM 53.6 °F - 28.4 °F 38% 30.25 in 10.0 mi NNE 11.5 mph - N/A   Clear
7:35 PM 51.8 °F - 28.4 °F 41% 30.25 in 10.0 mi NNW 9.2 mph - N/A   Clear
7:55 PM 50.0 °F - 28.4 °F 43% 30.25 in 10.0 mi NNE 9.2 mph - N/A   Clear
8:15 PM 48.2 °F - 28.4 °F 46% 30.25 in 10.0 mi WNW 6.9 mph - N/A   Clear
8:35 PM 46.4 °F 43.5 °F 28.4 °F 50% 30.25 in 10.0 mi NW 5.8 mph - N/A   Clear
8:55 PM 44.6 °F 41.4 °F 30.2 °F 57% 30.26 in 10.0 mi West 5.8 mph - N/A   Clear
9:15 PM 44.6 °F 41.4 °F 30.2 °F 57% 30.26 in 10.0 mi West 5.8 mph - N/A   Clear
9:35 PM 44.6 °F 41.4 °F 28.4 °F 53% 30.27 in 10.0 mi NNW 5.8 mph - N/A   Clear
9:55 PM 42.8 °F 39.3 °F 28.4 °F 57% 30.27 in 10.0 mi NW 5.8 mph - N/A   Clear
10:15 PM 42.8 °F 39.3 °F 28.4 °F 57% 30.27 in 10.0 mi WNW 5.8 mph - N/A   Clear
10:35 PM 42.8 °F 39.3 °F 28.4 °F 57% 30.28 in 10.0 mi WNW 5.8 mph - N/A   Clear
10:55 PM 42.8 °F 38.6 °F 28.4 °F 57% 30.28 in 10.0 mi NW 6.9 mph - N/A   Clear
11:15 PM 42.8 °F 38.6 °F 30.2 °F 61% 30.28 in 10.0 mi NNE 6.9 mph - N/A   Clear
11:35 PM 42.8 °F 39.3 °F 30.2 °F 61% 30.28 in 10.0 mi NNE 5.8 mph - N/A   Clear
11:55 PM 41.0 °F 37.1 °F 30.2 °F 65% 30.27 in 10.0 mi NNE 5.8 mph - N/A   Clear